sensor_id;sensor_type;location;lat;lon;timestamp;temperature;humidity
55004;DHT22;40900;52.710;6.438;2022-08-30T00:01:11;17.50;99.90
55004;DHT22;40900;52.710;6.438;2022-08-30T00:03:41;17.50;99.90
55004;DHT22;40900;52.710;6.438;2022-08-30T00:06:11;17.40;99.90
55004;DHT22;40900;52.710;6.438;2022-08-30T00:08:37;17.40;99.90
55004;DHT22;40900;52.710;6.438;2022-08-30T00:11:06;17.50;99.90
55004;DHT22;40900;52.710;6.438;2022-08-30T00:13:38;17.50;99.90
55004;DHT22;40900;52.710;6.438;2022-08-30T00:16:04;17.40;99.90
55004;DHT22;40900;52.710;6.438;2022-08-30T00:18:32;17.40;99.90
55004;DHT22;40900;52.710;6.438;2022-08-30T00:20:58;17.40;99.90
55004;DHT22;40900;52.710;6.438;2022-08-30T00:23:24;17.40;99.90
55004;DHT22;40900;52.710;6.438;2022-08-30T00:25:50;17.40;99.90
55004;DHT22;40900;52.710;6.438;2022-08-30T00:28:16;17.40;99.90
55004;DHT22;40900;52.710;6.438;2022-08-30T00:30:43;17.40;99.90
55004;DHT22;40900;52.710;6.438;2022-08-30T00:33:09;17.40;99.90
55004;DHT22;40900;52.710;6.438;2022-08-30T00:35:36;17.30;99.90
55004;DHT22;40900;52.710;6.438;2022-08-30T00:38:03;17.30;99.90
55004;DHT22;40900;52.710;6.438;2022-08-30T00:40:29;17.40;99.90
55004;DHT22;40900;52.710;6.438;2022-08-30T00:42:59;17.30;99.90
55004;DHT22;40900;52.710;6.438;2022-08-30T00:45:30;17.30;99.90
55004;DHT22;40900;52.710;6.438;2022-08-30T00:47:57;17.30;99.90
55004;DHT22;40900;52.710;6.438;2022-08-30T00:50:27;17.30;99.90
55004;DHT22;40900;52.710;6.438;2022-08-30T00:52:57;17.30;99.90
55004;DHT22;40900;52.710;6.438;2022-08-30T00:55:24;17.30;99.90
55004;DHT22;40900;52.710;6.438;2022-08-30T00:57:52;17.30;99.90
55004;DHT22;40900;52.710;6.438;2022-08-30T01:00:21;17.30;99.90
55004;DHT22;40900;52.710;6.438;2022-08-30T01:02:47;17.20;99.90
55004;DHT22;40900;52.710;6.438;2022-08-30T01:05:14;17.20;99.90
55004;DHT22;40900;52.710;6.438;2022-08-30T01:07:40;17.20;99.90
55004;DHT22;40900;52.710;6.438;2022-08-30T01:10:08;17.10;99.90
55004;DHT22;40900;52.710;6.438;2022-08-30T01:12:35;17.10;99.90
55004;DHT22;40900;52.710;6.438;2022-08-30T01:15:03;17.10;99.90
55004;DHT22;40900;52.710;6.438;2022-08-30T01:17:29;17.10;99.90
55004;DHT22;40900;52.710;6.438;2022-08-30T01:19:59;17.20;99.90
55004;DHT22;40900;52.710;6.438;2022-08-30T01:23:05;17.20;99.90
55004;DHT22;40900;52.710;6.438;2022-08-30T01:25:33;17.20;99.90
55004;DHT22;40900;52.710;6.438;2022-08-30T01:28:04;17.20;99.90
55004;DHT22;40900;52.710;6.438;2022-08-30T01:30:31;17.20;99.90
55004;DHT22;40900;52.710;6.438;2022-08-30T01:33:00;17.20;99.90
55004;DHT22;40900;52.710;6.438;2022-08-30T01:35:27;17.20;99.90
55004;DHT22;40900;52.710;6.438;2022-08-30T01:37:53;17.10;99.90
55004;DHT22;40900;52.710;6.438;2022-08-30T01:40:19;17.10;99.90
55004;DHT22;40900;52.710;6.438;2022-08-30T01:42:45;17.00;99.90
55004;DHT22;40900;52.710;6.438;2022-08-30T01:45:11;17.00;99.90
55004;DHT22;40900;52.710;6.438;2022-08-30T01:47:37;17.00;99.90
55004;DHT22;40900;52.710;6.438;2022-08-30T01:50:05;17.00;99.90
55004;DHT22;40900;52.710;6.438;2022-08-30T01:52:31;17.00;99.90
55004;DHT22;40900;52.710;6.438;2022-08-30T01:54:57;17.00;99.90
55004;DHT22;40900;52.710;6.438;2022-08-30T01:57:22;17.00;99.90
55004;DHT22;40900;52.710;6.438;2022-08-30T01:59:52;17.00;99.90
55004;DHT22;40900;52.710;6.438;2022-08-30T02:02:24;16.90;99.90
55004;DHT22;40900;52.710;6.438;2022-08-30T02:04:51;16.90;99.90
55004;DHT22;40900;52.710;6.438;2022-08-30T02:07:18;16.80;99.90
55004;DHT22;40900;52.710;6.438;2022-08-30T02:09:44;16.80;99.90
55004;DHT22;40900;52.710;6.438;2022-08-30T02:12:10;16.90;99.90
55004;DHT22;40900;52.710;6.438;2022-08-30T02:14:36;16.90;99.90
55004;DHT22;40900;52.710;6.438;2022-08-30T02:17:07;16.90;99.90
55004;DHT22;40900;52.710;6.438;2022-08-30T02:19:33;16.90;99.90
55004;DHT22;40900;52.710;6.438;2022-08-30T02:21:59;16.80;99.90
55004;DHT22;40900;52.710;6.438;2022-08-30T02:24:25;16.80;99.90
55004;DHT22;40900;52.710;6.438;2022-08-30T02:26:51;16.80;99.90
55004;DHT22;40900;52.710;6.438;2022-08-30T02:29:21;16.80;99.90
55004;DHT22;40900;52.710;6.438;2022-08-30T02:31:47;16.80;99.90
55004;DHT22;40900;52.710;6.438;2022-08-30T02:34:13;16.70;99.90
55004;DHT22;40900;52.710;6.438;2022-08-30T02:36:39;16.70;99.90
55004;DHT22;40900;52.710;6.438;2022-08-30T02:39:07;16.70;99.90
55004;DHT22;40900;52.710;6.438;2022-08-30T02:41:33;16.60;99.90
55004;DHT22;40900;52.710;6.438;2022-08-30T02:43:58;16.60;99.90
55004;DHT22;40900;52.710;6.438;2022-08-30T02:46:26;16.60;99.90
55004;DHT22;40900;52.710;6.438;2022-08-30T02:48:51;16.60;99.90
55004;DHT22;40900;52.710;6.438;2022-08-30T02:51:17;16.50;99.90
55004;DHT22;40900;52.710;6.438;2022-08-30T02:53:43;16.50;99.90
55004;DHT22;40900;52.710;6.438;2022-08-30T02:56:10;16.50;99.90
55004;DHT22;40900;52.710;6.438;2022-08-30T02:58:37;16.50;99.90
55004;DHT22;40900;52.710;6.438;2022-08-30T03:01:03;16.40;99.90
55004;DHT22;40900;52.710;6.438;2022-08-30T03:03:30;16.40;99.90
55004;DHT22;40900;52.710;6.438;2022-08-30T03:05:56;16.40;99.90
55004;DHT22;40900;52.710;6.438;2022-08-30T03:08:22;16.30;99.90
55004;DHT22;40900;52.710;6.438;2022-08-30T03:10:48;16.30;99.90
55004;DHT22;40900;52.710;6.438;2022-08-30T03:13:14;16.30;99.90
55004;DHT22;40900;52.710;6.438;2022-08-30T03:15:40;16.30;99.90
55004;DHT22;40900;52.710;6.438;2022-08-30T03:18:06;16.30;99.90
55004;DHT22;40900;52.710;6.438;2022-08-30T03:20:33;16.30;99.90
55004;DHT22;40900;52.710;6.438;2022-08-30T03:23:01;16.20;99.90
55004;DHT22;40900;52.710;6.438;2022-08-30T03:25:27;16.20;99.90
55004;DHT22;40900;52.710;6.438;2022-08-30T03:27:53;16.20;99.90
55004;DHT22;40900;52.710;6.438;2022-08-30T03:30:19;16.10;99.90
55004;DHT22;40900;52.710;6.438;2022-08-30T03:32:46;16.10;99.90
55004;DHT22;40900;52.710;6.438;2022-08-30T03:35:12;16.00;99.90
55004;DHT22;40900;52.710;6.438;2022-08-30T03:37:39;16.00;99.90
55004;DHT22;40900;52.710;6.438;2022-08-30T03:40:06;16.00;99.90
55004;DHT22;40900;52.710;6.438;2022-08-30T03:42:33;15.90;99.90
55004;DHT22;40900;52.710;6.438;2022-08-30T03:44:58;16.00;99.90
55004;DHT22;40900;52.710;6.438;2022-08-30T03:47:27;16.00;99.90
55004;DHT22;40900;52.710;6.438;2022-08-30T03:49:53;16.00;99.90
55004;DHT22;40900;52.710;6.438;2022-08-30T03:52:19;16.00;99.90
55004;DHT22;40900;52.710;6.438;2022-08-30T03:54:45;16.00;99.90
55004;DHT22;40900;52.710;6.438;2022-08-30T03:57:10;15.90;99.90
55004;DHT22;40900;52.710;6.438;2022-08-30T03:59:36;15.90;99.90
55004;DHT22;40900;52.710;6.438;2022-08-30T04:02:02;15.90;99.90
55004;DHT22;40900;52.710;6.438;2022-08-30T04:04:27;15.90;99.90
55004;DHT22;40900;52.710;6.438;2022-08-30T04:06:54;15.80;99.90
55004;DHT22;40900;52.710;6.438;2022-08-30T04:09:19;15.90;99.90
55004;DHT22;40900;52.710;6.438;2022-08-30T04:11:45;15.80;99.90
55004;DHT22;40900;52.710;6.438;2022-08-30T04:14:11;15.80;99.90
55004;DHT22;40900;52.710;6.438;2022-08-30T04:16:37;15.80;99.90
55004;DHT22;40900;52.710;6.438;2022-08-30T04:19:03;15.70;99.90
55004;DHT22;40900;52.710;6.438;2022-08-30T04:21:29;15.70;99.90
55004;DHT22;40900;52.710;6.438;2022-08-30T04:23:54;15.70;99.90
55004;DHT22;40900;52.710;6.438;2022-08-30T04:26:20;15.70;99.90
55004;DHT22;40900;52.710;6.438;2022-08-30T04:28:46;15.60;99.90
55004;DHT22;40900;52.710;6.438;2022-08-30T04:31:15;15.60;99.90
55004;DHT22;40900;52.710;6.438;2022-08-30T04:33:41;15.60;99.90
55004;DHT22;40900;52.710;6.438;2022-08-30T04:36:09;15.60;99.90
55004;DHT22;40900;52.710;6.438;2022-08-30T04:38:36;15.60;99.90
55004;DHT22;40900;52.710;6.438;2022-08-30T04:41:09;15.60;99.90
55004;DHT22;40900;52.710;6.438;2022-08-30T04:43:34;15.50;99.90
55004;DHT22;40900;52.710;6.438;2022-08-30T04:46:05;15.50;99.90
55004;DHT22;40900;52.710;6.438;2022-08-30T04:48:31;15.50;99.90
55004;DHT22;40900;52.710;6.438;2022-08-30T04:50:56;15.50;99.90
55004;DHT22;40900;52.710;6.438;2022-08-30T04:53:22;15.50;99.90
55004;DHT22;40900;52.710;6.438;2022-08-30T04:55:48;15.40;99.90
55004;DHT22;40900;52.710;6.438;2022-08-30T04:58:14;15.40;99.90
55004;DHT22;40900;52.710;6.438;2022-08-30T05:00:42;15.40;99.90
55004;DHT22;40900;52.710;6.438;2022-08-30T05:03:08;15.40;99.90
55004;DHT22;40900;52.710;6.438;2022-08-30T05:05:33;15.30;99.90
55004;DHT22;40900;52.710;6.438;2022-08-30T05:08:11;15.20;99.90
55004;DHT22;40900;52.710;6.438;2022-08-30T05:10:45;15.20;99.90
55004;DHT22;40900;52.710;6.438;2022-08-30T05:13:11;15.20;99.90
55004;DHT22;40900;52.710;6.438;2022-08-30T05:15:37;15.20;99.90
55004;DHT22;40900;52.710;6.438;2022-08-30T05:18:05;15.20;99.90
55004;DHT22;40900;52.710;6.438;2022-08-30T05:20:32;15.20;99.90
55004;DHT22;40900;52.710;6.438;2022-08-30T05:23:00;15.20;99.90
55004;DHT22;40900;52.710;6.438;2022-08-30T05:25:28;15.20;99.90
55004;DHT22;40900;52.710;6.438;2022-08-30T05:27:54;15.20;99.90
55004;DHT22;40900;52.710;6.438;2022-08-30T05:30:21;15.20;99.90
55004;DHT22;40900;52.710;6.438;2022-08-30T05:32:48;15.20;99.90
55004;DHT22;40900;52.710;6.438;2022-08-30T05:35:16;15.20;99.90
55004;DHT22;40900;52.710;6.438;2022-08-30T05:37:42;15.20;99.90
55004;DHT22;40900;52.710;6.438;2022-08-30T05:40:09;15.20;99.90
55004;DHT22;40900;52.710;6.438;2022-08-30T05:42:36;15.20;99.90
55004;DHT22;40900;52.710;6.438;2022-08-30T05:45:03;15.20;99.90
55004;DHT22;40900;52.710;6.438;2022-08-30T05:47:29;15.20;99.90
55004;DHT22;40900;52.710;6.438;2022-08-30T05:49:55;15.30;99.90
55004;DHT22;40900;52.710;6.438;2022-08-30T05:52:21;15.20;99.90
55004;DHT22;40900;52.710;6.438;2022-08-30T05:54:55;15.20;99.90
55004;DHT22;40900;52.710;6.438;2022-08-30T05:57:27;15.30;99.90
55004;DHT22;40900;52.710;6.438;2022-08-30T05:59:52;15.30;99.90
55004;DHT22;40900;52.710;6.438;2022-08-30T06:02:18;15.30;99.90
55004;DHT22;40900;52.710;6.438;2022-08-30T06:04:44;15.30;99.90
55004;DHT22;40900;52.710;6.438;2022-08-30T06:07:10;15.40;99.90
55004;DHT22;40900;52.710;6.438;2022-08-30T06:09:35;15.40;99.90
55004;DHT22;40900;52.710;6.438;2022-08-30T06:12:01;15.40;99.90
55004;DHT22;40900;52.710;6.438;2022-08-30T06:14:27;15.50;99.90
55004;DHT22;40900;52.710;6.438;2022-08-30T06:16:52;15.50;99.90
55004;DHT22;40900;52.710;6.438;2022-08-30T06:19:19;15.60;99.90
55004;DHT22;40900;52.710;6.438;2022-08-30T06:21:48;15.70;99.90
55004;DHT22;40900;52.710;6.438;2022-08-30T06:24:15;15.70;99.90
55004;DHT22;40900;52.710;6.438;2022-08-30T06:26:43;15.80;99.90
55004;DHT22;40900;52.710;6.438;2022-08-30T06:29:12;15.80;99.90
55004;DHT22;40900;52.710;6.438;2022-08-30T06:31:37;15.90;99.90
55004;DHT22;40900;52.710;6.438;2022-08-30T06:34:04;15.90;99.90
55004;DHT22;40900;52.710;6.438;2022-08-30T06:36:30;16.00;99.90
55004;DHT22;40900;52.710;6.438;2022-08-30T06:38:57;16.00;99.90
55004;DHT22;40900;52.710;6.438;2022-08-30T06:41:26;16.10;99.90
55004;DHT22;40900;52.710;6.438;2022-08-30T06:43:53;16.10;99.90
55004;DHT22;40900;52.710;6.438;2022-08-30T06:46:23;16.10;99.90
55004;DHT22;40900;52.710;6.438;2022-08-30T06:48:49;16.20;99.90
55004;DHT22;40900;52.710;6.438;2022-08-30T06:51:22;16.30;99.90
55004;DHT22;40900;52.710;6.438;2022-08-30T06:53:49;16.30;99.90
55004;DHT22;40900;52.710;6.438;2022-08-30T06:56:15;16.40;99.90
55004;DHT22;40900;52.710;6.438;2022-08-30T06:58:41;16.50;99.90
55004;DHT22;40900;52.710;6.438;2022-08-30T07:01:11;16.60;99.90
55004;DHT22;40900;52.710;6.438;2022-08-30T07:03:37;16.60;99.90
55004;DHT22;40900;52.710;6.438;2022-08-30T07:06:03;16.80;99.90
55004;DHT22;40900;52.710;6.438;2022-08-30T07:08:29;16.80;99.90
55004;DHT22;40900;52.710;6.438;2022-08-30T07:10:55;16.90;99.90
55004;DHT22;40900;52.710;6.438;2022-08-30T07:13:22;17.00;99.90
55004;DHT22;40900;52.710;6.438;2022-08-30T07:15:49;17.10;99.90
55004;DHT22;40900;52.710;6.438;2022-08-30T07:18:16;17.30;99.90
55004;DHT22;40900;52.710;6.438;2022-08-30T07:21:37;17.40;99.90
55004;DHT22;40900;52.710;6.438;2022-08-30T07:24:03;17.50;99.90
55004;DHT22;40900;52.710;6.438;2022-08-30T07:26:34;17.60;99.90
55004;DHT22;40900;52.710;6.438;2022-08-30T07:29:01;17.70;99.90
55004;DHT22;40900;52.710;6.438;2022-08-30T07:31:27;17.80;99.90
55004;DHT22;40900;52.710;6.438;2022-08-30T07:33:53;17.90;99.90
55004;DHT22;40900;52.710;6.438;2022-08-30T07:36:19;18.00;99.90
55004;DHT22;40900;52.710;6.438;2022-08-30T07:38:48;18.10;99.90
55004;DHT22;40900;52.710;6.438;2022-08-30T07:41:26;18.20;99.90
55004;DHT22;40900;52.710;6.438;2022-08-30T07:43:52;18.40;99.90
55004;DHT22;40900;52.710;6.438;2022-08-30T07:46:19;18.50;99.90
55004;DHT22;40900;52.710;6.438;2022-08-30T07:48:45;18.60;99.90
55004;DHT22;40900;52.710;6.438;2022-08-30T07:51:14;18.80;99.90
55004;DHT22;40900;52.710;6.438;2022-08-30T07:53:40;19.00;99.90
55004;DHT22;40900;52.710;6.438;2022-08-30T07:56:06;19.10;99.90
55004;DHT22;40900;52.710;6.438;2022-08-30T07:58:32;19.30;99.90
55004;DHT22;40900;52.710;6.438;2022-08-30T08:00:58;19.50;99.90
55004;DHT22;40900;52.710;6.438;2022-08-30T08:03:25;20.30;99.90
55004;DHT22;40900;52.710;6.438;2022-08-30T08:05:51;20.60;99.90
55004;DHT22;40900;52.710;6.438;2022-08-30T08:08:18;21.50;99.90
55004;DHT22;40900;52.710;6.438;2022-08-30T08:10:44;22.40;99.90
55004;DHT22;40900;52.710;6.438;2022-08-30T08:13:10;23.10;99.90
55004;DHT22;40900;52.710;6.438;2022-08-30T08:15:36;23.90;99.20
55004;DHT22;40900;52.710;6.438;2022-08-30T08:18:02;24.40;97.90
55004;DHT22;40900;52.710;6.438;2022-08-30T08:20:28;25.10;96.70
55004;DHT22;40900;52.710;6.438;2022-08-30T08:22:54;25.60;95.80
55004;DHT22;40900;52.710;6.438;2022-08-30T08:27:48;26.20;93.60
55004;DHT22;40900;52.710;6.438;2022-08-30T08:30:16;26.30;93.80
55004;DHT22;40900;52.710;6.438;2022-08-30T08:32:43;26.40;93.30
55004;DHT22;40900;52.710;6.438;2022-08-30T08:35:09;26.40;93.10
55004;DHT22;40900;52.710;6.438;2022-08-30T08:37:37;26.70;93.30
55004;DHT22;40900;52.710;6.438;2022-08-30T08:40:03;27.10;93.00
55004;DHT22;40900;52.710;6.438;2022-08-30T08:43:02;27.30;92.20
55004;DHT22;40900;52.710;6.438;2022-08-30T08:45:45;27.40;91.70
55004;DHT22;40900;52.710;6.438;2022-08-30T08:50:46;28.40;91.40
55004;DHT22;40900;52.710;6.438;2022-08-30T08:53:36;28.40;91.40
55004;DHT22;40900;52.710;6.438;2022-08-30T08:56:20;28.40;91.20
55004;DHT22;40900;52.710;6.438;2022-08-30T08:58:51;28.40;90.20
55004;DHT22;40900;52.710;6.438;2022-08-30T09:01:20;28.80;90.80
55004;DHT22;40900;52.710;6.438;2022-08-30T09:03:46;28.90;90.40
55004;DHT22;40900;52.710;6.438;2022-08-30T09:09:01;29.10;88.80
55004;DHT22;40900;52.710;6.438;2022-08-30T09:11:30;29.00;89.10
55004;DHT22;40900;52.710;6.438;2022-08-30T09:13:57;29.10;89.30
55004;DHT22;40900;52.710;6.438;2022-08-30T09:19:42;29.00;87.90
55004;DHT22;40900;52.710;6.438;2022-08-30T09:25:06;29.00;88.00
55004;DHT22;40900;52.710;6.438;2022-08-30T09:27:43;29.10;87.40
55004;DHT22;40900;52.710;6.438;2022-08-30T09:33:00;29.70;86.80
55004;DHT22;40900;52.710;6.438;2022-08-30T09:35:45;29.70;86.70
55004;DHT22;40900;52.710;6.438;2022-08-30T09:40:45;30.10;85.70
55004;DHT22;40900;52.710;6.438;2022-08-30T09:43:24;30.20;85.60
55004;DHT22;40900;52.710;6.438;2022-08-30T09:48:40;30.50;83.00
55004;DHT22;40900;52.710;6.438;2022-08-30T09:59:38;30.20;83.30
55004;DHT22;40900;52.710;6.438;2022-08-30T10:02:40;30.10;82.80
55004;DHT22;40900;52.710;6.438;2022-08-30T10:05:13;30.60;81.10
55004;DHT22;40900;52.710;6.438;2022-08-30T10:07:51;30.90;81.40
55004;DHT22;40900;52.710;6.438;2022-08-30T10:10:36;30.60;80.90
55004;DHT22;40900;52.710;6.438;2022-08-30T10:16:18;30.10;81.60
55004;DHT22;40900;52.710;6.438;2022-08-30T10:19:01;30.70;81.30
55004;DHT22;40900;52.710;6.438;2022-08-30T10:24:07;30.90;80.10
55004;DHT22;40900;52.710;6.438;2022-08-30T10:27:12;31.20;79.60
55004;DHT22;40900;52.710;6.438;2022-08-30T10:29:53;31.50;79.00
55004;DHT22;40900;52.710;6.438;2022-08-30T10:32:26;31.40;79.00
55004;DHT22;40900;52.710;6.438;2022-08-30T10:35:00;31.30;78.50
55004;DHT22;40900;52.710;6.438;2022-08-30T10:37:30;31.60;78.90
55004;DHT22;40900;52.710;6.438;2022-08-30T10:40:00;31.60;77.80
55004;DHT22;40900;52.710;6.438;2022-08-30T10:42:48;31.40;77.60
55004;DHT22;40900;52.710;6.438;2022-08-30T10:45:16;31.30;77.80
55004;DHT22;40900;52.710;6.438;2022-08-30T10:48:04;31.40;78.10
55004;DHT22;40900;52.710;6.438;2022-08-30T10:50:36;31.70;76.60
55004;DHT22;40900;52.710;6.438;2022-08-30T10:53:13;31.50;77.20
55004;DHT22;40900;52.710;6.438;2022-08-30T10:55:50;31.60;77.30
55004;DHT22;40900;52.710;6.438;2022-08-30T10:58:18;32.00;76.80
55004;DHT22;40900;52.710;6.438;2022-08-30T11:09:06;31.50;77.50
55004;DHT22;40900;52.710;6.438;2022-08-30T11:14:08;31.70;76.60
55004;DHT22;40900;52.710;6.438;2022-08-30T11:16:40;31.50;75.90
55004;DHT22;40900;52.710;6.438;2022-08-30T11:19:25;31.70;76.40
55004;DHT22;40900;52.710;6.438;2022-08-30T11:21:52;31.70;76.10
55004;DHT22;40900;52.710;6.438;2022-08-30T11:27:53;31.90;76.30
55004;DHT22;40900;52.710;6.438;2022-08-30T11:33:01;31.80;75.70
55004;DHT22;40900;52.710;6.438;2022-08-30T11:35:39;31.70;75.00
55004;DHT22;40900;52.710;6.438;2022-08-30T11:38:17;31.50;75.40
55004;DHT22;40900;52.710;6.438;2022-08-30T11:41:27;31.70;76.30
55004;DHT22;40900;52.710;6.438;2022-08-30T11:43:54;31.40;75.30
55004;DHT22;40900;52.710;6.438;2022-08-30T11:49:01;31.30;75.00
55004;DHT22;40900;52.710;6.438;2022-08-30T11:57:19;29.40;76.20
55004;DHT22;40900;52.710;6.438;2022-08-30T12:00:09;28.90;76.50
55004;DHT22;40900;52.710;6.438;2022-08-30T12:05:04;28.50;78.10
55004;DHT22;40900;52.710;6.438;2022-08-30T12:07:56;28.50;78.80
55004;DHT22;40900;52.710;6.438;2022-08-30T12:13:06;28.40;76.60
55004;DHT22;40900;52.710;6.438;2022-08-30T12:15:55;28.20;77.30
55004;DHT22;40900;52.710;6.438;2022-08-30T12:18:26;27.80;77.90
55004;DHT22;40900;52.710;6.438;2022-08-30T12:20:52;27.60;78.50
55004;DHT22;40900;52.710;6.438;2022-08-30T12:23:36;27.50;78.70
55004;DHT22;40900;52.710;6.438;2022-08-30T12:26:30;27.60;78.20
55004;DHT22;40900;52.710;6.438;2022-08-30T12:29:19;27.60;78.60
55004;DHT22;40900;52.710;6.438;2022-08-30T12:34:50;27.50;77.10
55004;DHT22;40900;52.710;6.438;2022-08-30T12:37:26;27.50;77.30
55004;DHT22;40900;52.710;6.438;2022-08-30T12:42:56;27.40;78.20
55004;DHT22;40900;52.710;6.438;2022-08-30T12:45:30;27.30;77.70
55004;DHT22;40900;52.710;6.438;2022-08-30T12:48:04;27.40;78.60
55004;DHT22;40900;52.710;6.438;2022-08-30T12:50:42;27.00;78.70
55004;DHT22;40900;52.710;6.438;2022-08-30T12:53:11;27.20;79.30
55004;DHT22;40900;52.710;6.438;2022-08-30T12:56:18;27.40;79.40
55004;DHT22;40900;52.710;6.438;2022-08-30T12:58:47;27.60;79.70
55004;DHT22;40900;52.710;6.438;2022-08-30T13:01:33;27.50;79.10
55004;DHT22;40900;52.710;6.438;2022-08-30T13:04:01;27.40;79.70
55004;DHT22;40900;52.710;6.438;2022-08-30T13:06:41;27.30;79.90
55004;DHT22;40900;52.710;6.438;2022-08-30T13:09:10;27.50;78.10
55004;DHT22;40900;52.710;6.438;2022-08-30T13:11:48;27.50;77.80
55004;DHT22;40900;52.710;6.438;2022-08-30T13:16:46;27.40;79.00
55004;DHT22;40900;52.710;6.438;2022-08-30T13:19:26;27.40;80.30
55004;DHT22;40900;52.710;6.438;2022-08-30T13:21:57;27.40;80.80
55004;DHT22;40900;52.710;6.438;2022-08-30T13:24:24;27.40;81.00
55004;DHT22;40900;52.710;6.438;2022-08-30T13:26:50;27.20;80.50
55004;DHT22;40900;52.710;6.438;2022-08-30T13:29:19;27.00;81.10
55004;DHT22;40900;52.710;6.438;2022-08-30T13:31:45;26.80;80.00
55004;DHT22;40900;52.710;6.438;2022-08-30T13:34:11;26.90;80.40
55004;DHT22;40900;52.710;6.438;2022-08-30T13:36:42;26.90;79.70
55004;DHT22;40900;52.710;6.438;2022-08-30T13:39:10;27.00;80.10
55004;DHT22;40900;52.710;6.438;2022-08-30T13:41:38;27.00;80.10
55004;DHT22;40900;52.710;6.438;2022-08-30T13:44:04;26.90;80.00
55004;DHT22;40900;52.710;6.438;2022-08-30T13:46:30;26.80;80.30
55004;DHT22;40900;52.710;6.438;2022-08-30T13:49:07;26.80;80.30
55004;DHT22;40900;52.710;6.438;2022-08-30T13:51:34;26.60;80.80
55004;DHT22;40900;52.710;6.438;2022-08-30T13:53:59;26.80;80.90
55004;DHT22;40900;52.710;6.438;2022-08-30T13:56:29;26.60;81.00
55004;DHT22;40900;52.710;6.438;2022-08-30T13:59:00;26.70;82.00
55004;DHT22;40900;52.710;6.438;2022-08-30T14:01:27;26.80;81.60
55004;DHT22;40900;52.710;6.438;2022-08-30T14:03:53;26.90;81.50
55004;DHT22;40900;52.710;6.438;2022-08-30T14:06:19;26.80;80.90
55004;DHT22;40900;52.710;6.438;2022-08-30T14:08:44;26.70;81.40
55004;DHT22;40900;52.710;6.438;2022-08-30T14:11:11;26.70;81.30
55004;DHT22;40900;52.710;6.438;2022-08-30T14:13:41;26.70;81.10
55004;DHT22;40900;52.710;6.438;2022-08-30T14:16:10;26.60;81.30
55004;DHT22;40900;52.710;6.438;2022-08-30T14:18:35;26.60;81.50
55004;DHT22;40900;52.710;6.438;2022-08-30T14:21:01;26.60;82.10
55004;DHT22;40900;52.710;6.438;2022-08-30T14:23:27;26.70;81.90
55004;DHT22;40900;52.710;6.438;2022-08-30T14:25:56;26.70;81.80
55004;DHT22;40900;52.710;6.438;2022-08-30T14:28:24;26.60;82.50
55004;DHT22;40900;52.710;6.438;2022-08-30T14:30:53;26.50;82.50
55004;DHT22;40900;52.710;6.438;2022-08-30T14:33:19;26.60;83.50
55004;DHT22;40900;52.710;6.438;2022-08-30T14:35:44;26.60;83.20
55004;DHT22;40900;52.710;6.438;2022-08-30T14:38:10;26.60;83.50
55004;DHT22;40900;52.710;6.438;2022-08-30T14:40:36;26.50;84.60
55004;DHT22;40900;52.710;6.438;2022-08-30T14:43:02;26.50;83.70
55004;DHT22;40900;52.710;6.438;2022-08-30T14:45:27;26.40;83.90
55004;DHT22;40900;52.710;6.438;2022-08-30T14:47:55;26.50;83.40
55004;DHT22;40900;52.710;6.438;2022-08-30T14:50:22;26.40;83.80
55004;DHT22;40900;52.710;6.438;2022-08-30T14:52:47;26.20;83.30
55004;DHT22;40900;52.710;6.438;2022-08-30T14:55:14;26.30;83.50
55004;DHT22;40900;52.710;6.438;2022-08-30T14:57:40;26.30;83.60
55004;DHT22;40900;52.710;6.438;2022-08-30T15:00:09;26.30;83.60
55004;DHT22;40900;52.710;6.438;2022-08-30T15:02:36;26.30;83.50
55004;DHT22;40900;52.710;6.438;2022-08-30T15:05:02;26.10;84.40
55004;DHT22;40900;52.710;6.438;2022-08-30T15:07:28;26.10;84.70
55004;DHT22;40900;52.710;6.438;2022-08-30T15:09:53;26.10;85.30
55004;DHT22;40900;52.710;6.438;2022-08-30T15:12:19;25.80;85.20
55004;DHT22;40900;52.710;6.438;2022-08-30T15:14:45;25.90;85.10
55004;DHT22;40900;52.710;6.438;2022-08-30T15:17:11;25.80;85.00
55004;DHT22;40900;52.710;6.438;2022-08-30T15:19:37;25.80;84.90
55004;DHT22;40900;52.710;6.438;2022-08-30T15:22:05;25.80;84.80
55004;DHT22;40900;52.710;6.438;2022-08-30T15:24:31;25.50;85.30
55004;DHT22;40900;52.710;6.438;2022-08-30T15:26:58;25.50;85.70
55004;DHT22;40900;52.710;6.438;2022-08-30T15:29:25;25.20;86.10
55004;DHT22;40900;52.710;6.438;2022-08-30T15:31:51;25.30;85.50
55004;DHT22;40900;52.710;6.438;2022-08-30T15:34:18;25.40;85.60
55004;DHT22;40900;52.710;6.438;2022-08-30T15:36:45;25.50;85.90
55004;DHT22;40900;52.710;6.438;2022-08-30T15:39:12;25.40;86.90
55004;DHT22;40900;52.710;6.438;2022-08-30T15:41:38;25.30;87.90
55004;DHT22;40900;52.710;6.438;2022-08-30T15:44:05;25.40;88.10
55004;DHT22;40900;52.710;6.438;2022-08-30T15:46:36;25.50;88.10
55004;DHT22;40900;52.710;6.438;2022-08-30T15:49:22;25.70;88.20
55004;DHT22;40900;52.710;6.438;2022-08-30T15:51:50;25.90;87.90
55004;DHT22;40900;52.710;6.438;2022-08-30T15:54:18;25.80;88.00
55004;DHT22;40900;52.710;6.438;2022-08-30T15:56:45;25.90;87.70
55004;DHT22;40900;52.710;6.438;2022-08-30T15:59:11;25.90;88.40
55004;DHT22;40900;52.710;6.438;2022-08-30T16:01:40;25.90;88.40
55004;DHT22;40900;52.710;6.438;2022-08-30T16:04:06;25.90;87.70
55004;DHT22;40900;52.710;6.438;2022-08-30T16:06:34;25.80;86.80
55004;DHT22;40900;52.710;6.438;2022-08-30T16:09:02;25.90;86.90
55004;DHT22;40900;52.710;6.438;2022-08-30T16:11:28;25.70;87.50
55004;DHT22;40900;52.710;6.438;2022-08-30T16:13:55;25.60;87.80
55004;DHT22;40900;52.710;6.438;2022-08-30T16:16:21;25.50;88.30
55004;DHT22;40900;52.710;6.438;2022-08-30T16:18:49;25.30;88.30
55004;DHT22;40900;52.710;6.438;2022-08-30T16:21:20;25.00;89.00
55004;DHT22;40900;52.710;6.438;2022-08-30T16:23:47;25.00;88.80
55004;DHT22;40900;52.710;6.438;2022-08-30T16:26:14;24.90;89.10
55004;DHT22;40900;52.710;6.438;2022-08-30T16:28:43;24.80;89.50
55004;DHT22;40900;52.710;6.438;2022-08-30T16:31:09;25.00;89.20
55004;DHT22;40900;52.710;6.438;2022-08-30T16:33:35;25.00;89.40
55004;DHT22;40900;52.710;6.438;2022-08-30T16:36:02;25.00;89.90
55004;DHT22;40900;52.710;6.438;2022-08-30T16:38:28;24.90;90.10
55004;DHT22;40900;52.710;6.438;2022-08-30T16:40:54;25.00;89.80
55004;DHT22;40900;52.710;6.438;2022-08-30T16:43:20;25.00;89.90
55004;DHT22;40900;52.710;6.438;2022-08-30T16:45:46;25.00;89.00
55004;DHT22;40900;52.710;6.438;2022-08-30T16:48:13;25.00;89.00
55004;DHT22;40900;52.710;6.438;2022-08-30T16:50:41;24.90;88.90
55004;DHT22;40900;52.710;6.438;2022-08-30T16:53:08;24.80;89.50
55004;DHT22;40900;52.710;6.438;2022-08-30T16:55:35;24.70;90.10
55004;DHT22;40900;52.710;6.438;2022-08-30T16:58:06;24.60;90.40